createdAt,value
2022-08-31T00:01:01.572Z,16.39
2022-08-31T00:03:48.507Z,16.39
2022-08-31T00:06:17.998Z,16.39
2022-08-31T00:08:47.020Z,16.35
2022-08-31T00:11:17.048Z,16.32
2022-08-31T00:13:47.740Z,16.27
2022-08-31T00:16:18.200Z,16.29
2022-08-31T00:18:47.471Z,16.26
2022-08-31T00:21:16.455Z,16.25
2022-08-31T00:23:45.442Z,16.22
2022-08-31T00:26:14.452Z,16.21
2022-08-31T00:28:43.804Z,16.19
2022-08-31T00:31:18.461Z,16.13
2022-08-31T00:33:52.439Z,16.15
2022-08-31T00:36:25.469Z,15.79
2022-08-31T00:38:55.510Z,16.14
2022-08-31T00:41:27.248Z,16.15
2022-08-31T00:43:58.387Z,16.15
2022-08-31T00:46:33.125Z,16.15
2022-08-31T00:49:06.071Z,16.13
2022-08-31T00:51:40.910Z,16.13
2022-08-31T00:54:12.925Z,16.12
2022-08-31T00:56:45.010Z,16.10
2022-08-31T00:59:16.362Z,16.06
2022-08-31T01:01:46.847Z,16.08
2022-08-31T01:04:16.339Z,16.04
2022-08-31T01:06:46.516Z,16.03
2022-08-31T01:09:16.319Z,15.99
2022-08-31T01:11:46.210Z,16.00
2022-08-31T01:14:15.397Z,15.98
2022-08-31T01:16:50.129Z,15.94
2022-08-31T01:19:30.226Z,15.95
2022-08-31T01:22:09.212Z,15.96
2022-08-31T01:24:42.597Z,15.94
2022-08-31T01:27:12.937Z,15.92
2022-08-31T01:29:42.413Z,15.89
2022-08-31T01:32:11.351Z,15.86
2022-08-31T01:34:40.395Z,15.81
2022-08-31T01:37:09.735Z,15.80
2022-08-31T01:39:40.107Z,15.80
2022-08-31T01:42:09.622Z,15.77
2022-08-31T01:44:38.627Z,15.77
2022-08-31T01:47:08.165Z,15.75
2022-08-31T01:49:37.810Z,15.73
2022-08-31T01:52:07.435Z,15.73
2022-08-31T01:54:36.532Z,15.71
2022-08-31T01:57:10.705Z,15.68
2022-08-31T02:00:04.809Z,15.64
2022-08-31T02:02:48.433Z,15.61
2022-08-31T02:05:17.358Z,15.40
2022-08-31T02:07:47.987Z,15.50
2022-08-31T02:10:17.251Z,15.42
2022-08-31T02:12:47.614Z,15.34
2022-08-31T02:15:16.696Z,15.28
2022-08-31T02:17:45.732Z,15.21
2022-08-31T02:20:17.131Z,14.66
2022-08-31T02:22:48.605Z,15.14
2022-08-31T02:25:18.919Z,15.08
2022-08-31T02:27:50.009Z,15.10
2022-08-31T02:30:21.110Z,15.06
2022-08-31T02:32:50.030Z,15.05
2022-08-31T02:35:19.071Z,15.02
2022-08-31T02:37:48.258Z,15.02
2022-08-31T02:40:17.889Z,14.99
2022-08-31T02:42:53.278Z,15.02
2022-08-31T02:45:26.815Z,15.05
2022-08-31T02:48:02.415Z,15.04
2022-08-31T02:50:41.055Z,15.04
2022-08-31T02:53:10.976Z,15.05
2022-08-31T02:55:41.223Z,15.05
2022-08-31T02:58:13.087Z,15.05
2022-08-31T03:00:46.445Z,15.04
2022-08-31T03:03:16.790Z,15.06
2022-08-31T03:05:47.125Z,15.06
2022-08-31T03:08:16.458Z,15.03
2022-08-31T03:10:46.779Z,15.02
2022-08-31T03:13:17.263Z,14.98
2022-08-31T03:15:47.072Z,14.95
2022-08-31T03:18:18.447Z,14.85
2022-08-31T03:20:47.531Z,14.78
2022-08-31T03:23:16.762Z,14.82
2022-08-31T03:25:45.938Z,14.75
2022-08-31T03:28:16.752Z,14.79
2022-08-31T03:31:09.197Z,14.71
2022-08-31T03:33:39.623Z,14.64
2022-08-31T03:36:08.881Z,14.67
2022-08-31T03:38:38.198Z,14.68
2022-08-31T03:41:07.592Z,14.59
2022-08-31T03:43:39.721Z,14.57
2022-08-31T03:46:11.999Z,14.51
2022-08-31T03:48:47.074Z,14.51
2022-08-31T03:51:16.564Z,14.44
2022-08-31T03:53:45.741Z,14.46
2022-08-31T03:56:20.232Z,14.46
2022-08-31T03:58:53.045Z,14.43
2022-08-31T04:01:40.418Z,14.38
2022-08-31T04:04:27.637Z,14.40
2022-08-31T04:07:42.233Z,14.33
2022-08-31T04:10:32.286Z,14.28
2022-08-31T04:13:36.116Z,13.97
2022-08-31T04:16:27.168Z,14.13
2022-08-31T04:19:25.002Z,14.17
2022-08-31T04:22:04.660Z,14.12
2022-08-31T04:24:38.097Z,14.08
2022-08-31T04:27:07.982Z,14.02
2022-08-31T04:29:36.992Z,14.02
2022-08-31T04:32:07.742Z,13.98
2022-08-31T04:34:36.777Z,14.00
2022-08-31T04:37:08.961Z,13.98
2022-08-31T04:39:50.686Z,13.99
2022-08-31T04:42:21.168Z,13.96
2022-08-31T04:44:50.362Z,13.98
2022-08-31T04:47:21.545Z,14.03
2022-08-31T04:49:50.783Z,13.98
2022-08-31T04:52:19.458Z,14.01
2022-08-31T04:54:53.906Z,13.98
2022-08-31T04:57:22.855Z,14.02
2022-08-31T04:59:51.936Z,14.02
2022-08-31T05:02:41.033Z,14.06
2022-08-31T05:05:18.058Z,14.08
2022-08-31T05:07:47.035Z,14.11
2022-08-31T05:10:17.092Z,14.16
2022-08-31T05:12:46.089Z,14.17
2022-08-31T05:15:17.420Z,14.20
2022-08-31T05:17:47.947Z,14.25
2022-08-31T05:20:17.982Z,14.28
2022-08-31T05:22:47.398Z,14.28
2022-08-31T05:25:16.557Z,14.30
2022-08-31T05:27:45.572Z,14.39
2022-08-31T05:30:15.305Z,14.42
2022-08-31T05:32:53.773Z,14.52
2022-08-31T05:35:22.775Z,14.53
2022-08-31T05:37:52.769Z,14.51
2022-08-31T05:40:22.425Z,14.54
2022-08-31T05:42:51.484Z,14.54
2022-08-31T05:45:21.389Z,14.56
2022-08-31T05:47:50.431Z,14.65
2022-08-31T05:50:21.129Z,14.71
2022-08-31T05:52:50.138Z,14.75
2022-08-31T05:55:19.662Z,14.83
2022-08-31T05:57:48.731Z,14.99
2022-08-31T06:00:17.899Z,15.15
2022-08-31T06:02:54.002Z,15.35
2022-08-31T06:05:24.763Z,15.53
2022-08-31T06:07:55.470Z,15.71
2022-08-31T06:10:25.345Z,15.89
2022-08-31T06:12:54.630Z,15.98
2022-08-31T06:15:24.825Z,15.89
2022-08-31T06:17:54.355Z,15.83
2022-08-31T06:20:26.870Z,15.85
2022-08-31T06:22:56.035Z,15.88
2022-08-31T06:25:36.805Z,15.91
2022-08-31T06:28:07.027Z,15.87
2022-08-31T06:30:54.420Z,15.88
2022-08-31T06:33:25.931Z,15.84
2022-08-31T06:36:22.505Z,15.94
2022-08-31T06:39:01.937Z,15.96
2022-08-31T06:41:49.038Z,16.14
2022-08-31T06:44:47.260Z,16.45
2022-08-31T06:47:23.989Z,16.52
2022-08-31T06:49:54.008Z,16.60
2022-08-31T06:52:25.443Z,16.86
2022-08-31T06:55:09.726Z,17.22
2022-08-31T06:57:57.184Z,17.15
2022-08-31T07:00:49.499Z,17.44
2022-08-31T07:03:49.764Z,17.57
2022-08-31T07:06:21.388Z,17.69
2022-08-31T07:08:55.021Z,17.78
2022-08-31T07:11:28.139Z,17.55
2022-08-31T07:13:58.738Z,17.78
2022-08-31T07:16:30.234Z,18.34
2022-08-31T07:19:03.536Z,18.66
2022-08-31T07:21:34.663Z,18.23
2022-08-31T07:24:07.195Z,18.47
2022-08-31T07:26:39.856Z,18.74
2022-08-31T07:29:11.903Z,18.51
2022-08-31T07:31:44.082Z,18.67
2022-08-31T07:34:15.812Z,18.71
2022-08-31T07:37:20.309Z,18.56
2022-08-31T07:40:08.848Z,18.48
2022-08-31T07:42:43.368Z,18.44
2022-08-31T07:45:22.911Z,18.66
2022-08-31T07:47:56.263Z,18.77
2022-08-31T07:50:30.938Z,18.54
2022-08-31T07:53:24.978Z,18.74
2022-08-31T07:56:04.307Z,19.08
2022-08-31T07:58:35.145Z,19.49
2022-08-31T08:01:04.434Z,19.84
2022-08-31T08:03:33.697Z,19.74
2022-08-31T08:06:21.935Z,19.63
2022-08-31T08:09:24.857Z,19.48
2022-08-31T08:12:07.354Z,19.14
2022-08-31T08:15:02.324Z,18.82
2022-08-31T08:17:50.064Z,18.42
2022-08-31T08:20:37.244Z,18.39
2022-08-31T08:23:25.896Z,18.53
2022-08-31T08:26:21.196Z,18.55
2022-08-31T08:29:12.573Z,18.57
2022-08-31T08:31:48.357Z,18.81
2022-08-31T08:34:17.754Z,18.91
2022-08-31T08:36:47.446Z,18.85
2022-08-31T08:39:17.500Z,19.03
2022-08-31T08:41:59.297Z,19.05
2022-08-31T08:44:33.139Z,19.45
2022-08-31T08:47:06.654Z,19.75
2022-08-31T08:49:54.237Z,20.12
2022-08-31T08:52:28.768Z,20.00
2022-08-31T08:55:03.222Z,19.70
2022-08-31T08:57:35.721Z,19.40
2022-08-31T09:00:12.601Z,19.32
2022-08-31T09:02:58.336Z,19.31
2022-08-31T09:06:02.411Z,19.30
2022-08-31T09:09:12.197Z,18.98
2022-08-31T09:11:59.567Z,18.93
2022-08-31T09:14:48.303Z,19.28
2022-08-31T09:17:36.025Z,19.40
2022-08-31T09:20:07.624Z,19.48
2022-08-31T09:22:50.329Z,19.42
2022-08-31T09:25:28.498Z,19.88
2022-08-31T09:28:36.044Z,20.18
2022-08-31T09:31:05.143Z,20.56
2022-08-31T09:33:47.818Z,20.69
2022-08-31T09:36:22.554Z,20.60
2022-08-31T09:38:51.986Z,20.30
2022-08-31T09:41:35.549Z,20.40
2022-08-31T09:44:41.863Z,20.94
2022-08-31T09:47:48.691Z,21.07
2022-08-31T09:50:41.777Z,20.96
2022-08-31T09:53:38.042Z,21.46
2022-08-31T09:56:19.999Z,21.67
2022-08-31T09:58:52.664Z,21.79
2022-08-31T10:01:34.237Z,21.83
2022-08-31T10:04:19.128Z,22.20
2022-08-31T10:06:56.446Z,21.39
2022-08-31T10:09:36.230Z,21.36
2022-08-31T10:12:12.646Z,21.40
2022-08-31T10:14:52.310Z,21.32
2022-08-31T10:17:32.186Z,20.95
2022-08-31T10:20:10.510Z,20.54
2022-08-31T10:22:47.240Z,19.87
2022-08-31T10:25:24.496Z,20.13
2022-08-31T10:28:00.102Z,20.22
2022-08-31T10:30:44.718Z,19.92
2022-08-31T10:33:17.943Z,20.12
2022-08-31T10:35:54.789Z,20.16
2022-08-31T10:38:34.644Z,19.92
2022-08-31T10:41:11.546Z,19.93
2022-08-31T10:43:49.161Z,19.90
2022-08-31T10:46:19.041Z,20.04
2022-08-31T10:48:54.786Z,20.16
2022-08-31T10:51:31.634Z,20.14
2022-08-31T10:54:22.155Z,20.20
2022-08-31T10:57:01.884Z,20.20
2022-08-31T10:59:40.854Z,20.23
2022-08-31T11:02:53.061Z,20.06
2022-08-31T11:05:32.785Z,20.36
2022-08-31T11:08:17.105Z,20.42
2022-08-31T11:10:52.038Z,20.59
2022-08-31T11:13:49.663Z,20.34
2022-08-31T11:16:34.377Z,20.50
2022-08-31T11:19:40.187Z,20.52
2022-08-31T11:22:37.752Z,20.51
2022-08-31T11:25:49.343Z,20.71
2022-08-31T11:28:34.377Z,20.93
2022-08-31T11:31:20.457Z,20.89
2022-08-31T11:34:14.639Z,21.17
2022-08-31T11:36:51.380Z,21.51
2022-08-31T11:39:38.532Z,21.77
2022-08-31T11:42:53.680Z,21.94
2022-08-31T11:45:33.263Z,21.53
2022-08-31T11:48:02.750Z,21.39
2022-08-31T11:51:07.379Z,21.14
2022-08-31T11:53:44.274Z,20.97
2022-08-31T11:56:15.352Z,21.37
2022-08-31T11:58:48.196Z,21.64
2022-08-31T12:01:39.579Z,22.06
2022-08-31T12:05:00.746Z,22.11
2022-08-31T12:07:39.254Z,21.75
2022-08-31T12:10:47.659Z,21.91
2022-08-31T12:13:45.975Z,21.70
2022-08-31T12:16:54.965Z,22.32
2022-08-31T12:20:04.954Z,22.40
2022-08-31T12:23:37.407Z,22.35
2022-08-31T12:26:31.202Z,22.30
2022-08-31T12:29:24.456Z,22.11
2022-08-31T12:32:38.305Z,21.92
2022-08-31T12:35:19.576Z,21.82
2022-08-31T12:38:00.155Z,21.95
2022-08-31T12:40:30.876Z,21.96
2022-08-31T12:43:04.060Z,21.91
2022-08-31T12:46:11.081Z,21.90
2022-08-31T12:49:10.579Z,21.98
2022-08-31T12:51:48.183Z,21.78
2022-08-31T12:55:09.260Z,22.03
2022-08-31T12:57:53.596Z,22.32
2022-08-31T13:00:28.027Z,22.22
2022-08-31T13:03:00.174Z,22.29
2022-08-31T13:05:31.666Z,22.40
2022-08-31T13:08:03.044Z,22.58
2022-08-31T13:10:36.782Z,22.64
2022-08-31T13:13:08.408Z,22.44
2022-08-31T13:15:40.226Z,22.62
2022-08-31T13:18:14.271Z,22.81
2022-08-31T13:20:46.085Z,22.42
2022-08-31T13:23:27.663Z,22.67
2022-08-31T13:26:05.893Z,22.60
2022-08-31T13:28:35.219Z,21.96
2022-08-31T13:31:08.050Z,22.11
2022-08-31T13:33:40.301Z,22.06
2022-08-31T13:36:32.255Z,22.10
2022-08-31T13:39:12.810Z,22.18
2022-08-31T13:41:57.572Z,22.43
2022-08-31T13:44:39.328Z,22.18
2022-08-31T13:47:17.044Z,22.67
2022-08-31T13:49:46.241Z,22.45
2022-08-31T13:52:22.452Z,22.47
2022-08-31T13:55:02.408Z,22.39
2022-08-31T13:57:34.850Z,22.30
2022-08-31T14:00:29.532Z,22.33
2022-08-31T14:03:01.771Z,22.41
2022-08-31T14:05:33.295Z,22.56
2022-08-31T14:08:04.105Z,22.44
2022-08-31T14:10:38.288Z,22.57
2022-08-31T14:13:18.592Z,22.42
2022-08-31T14:15:53.588Z,22.24
2022-08-31T14:18:28.024Z,22.01
2022-08-31T14:21:22.841Z,22.49
2022-08-31T14:24:01.606Z,22.23
2022-08-31T14:26:34.345Z,22.21
2022-08-31T14:29:10.855Z,22.33
2022-08-31T14:31:44.209Z,22.22
2022-08-31T14:34:23.572Z,22.18
2022-08-31T14:36:57.566Z,22.31
2022-08-31T14:39:31.175Z,22.12
2022-08-31T14:42:03.372Z,22.12
2022-08-31T14:44:34.748Z,22.27
2022-08-31T14:47:03.839Z,22.09
2022-08-31T14:49:36.212Z,22.11
2022-08-31T14:52:06.891Z,22.31
2022-08-31T14:54:37.444Z,22.26
2022-08-31T14:57:13.046Z,22.20
2022-08-31T14:59:46.902Z,22.26
2022-08-31T15:02:21.449Z,21.27
2022-08-31T15:04:51.061Z,22.17
2022-08-31T15:07:21.185Z,22.27
2022-08-31T15:09:50.434Z,22.15
2022-08-31T15:12:20.709Z,22.12
2022-08-31T15:14:49.933Z,22.22
2022-08-31T15:17:21.911Z,22.09
2022-08-31T15:19:56.169Z,22.20
2022-08-31T15:22:26.885Z,22.35
2022-08-31T15:24:56.403Z,22.31
2022-08-31T15:27:29.060Z,22.56
2022-08-31T15:30:04.573Z,22.57
2022-08-31T15:32:33.669Z,22.64
2022-08-31T15:35:03.038Z,22.54
2022-08-31T15:37:32.626Z,22.48
2022-08-31T15:40:03.785Z,22.34
2022-08-31T15:42:39.872Z,22.33
2022-08-31T15:45:10.765Z,22.13
2022-08-31T15:47:59.780Z,22.45
2022-08-31T15:50:32.249Z,22.45
2022-08-31T15:53:09.514Z,22.16
2022-08-31T15:55:40.916Z,22.29
2022-08-31T15:58:12.762Z,22.37
2022-08-31T16:00:42.224Z,22.42
2022-08-31T16:03:12.690Z,22.35
2022-08-31T16:05:43.645Z,22.30
2022-08-31T16:08:14.459Z,22.10
2022-08-31T16:10:47.011Z,21.80
2022-08-31T16:13:18.017Z,21.91
2022-08-31T16:15:52.250Z,21.96
2022-08-31T16:18:22.894Z,22.05
2022-08-31T16:20:55.053Z,22.06
2022-08-31T16:23:24.922Z,22.09
2022-08-31T16:25:54.137Z,22.04
2022-08-31T16:28:24.830Z,21.86
2022-08-31T16:54:49.132Z,21.53
2022-08-31T17:10:08.333Z,21.01
2022-08-31T17:18:00.996Z,20.71
2022-08-31T17:22:00.860Z,20.51
2022-08-31T17:28:36.247Z,20.15
2022-08-31T17:31:42.760Z,20.11
2022-08-31T17:37:32.576Z,19.85
2022-08-31T17:40:02.158Z,19.71
2022-08-31T17:42:52.949Z,19.61
2022-08-31T17:45:26.465Z,19.54
2022-08-31T17:48:01.991Z,19.48
2022-08-31T17:54:15.360Z,19.35
2022-08-31T17:56:48.711Z,19.32
2022-08-31T17:59:20.422Z,19.19
2022-08-31T18:01:53.332Z,18.78
2022-08-31T18:04:24.864Z,19.02
2022-08-31T18:06:55.388Z,19.03
2022-08-31T18:09:27.714Z,18.93
2022-08-31T18:11:59.760Z,18.88
2022-08-31T18:14:32.505Z,18.85
2022-08-31T18:17:03.992Z,18.82
2022-08-31T18:19:36.048Z,18.74
2022-08-31T18:22:05.438Z,18.72
2022-08-31T18:24:37.669Z,18.62
2022-08-31T18:27:09.087Z,18.54
2022-08-31T18:29:39.288Z,18.58
2022-08-31T18:32:10.840Z,18.46
2022-08-31T18:34:44.892Z,18.40
2022-08-31T18:37:15.167Z,18.27
2022-08-31T18:40:06.510Z,18.09
2022-08-31T18:42:56.873Z,18.01
2022-08-31T18:45:26.799Z,17.99
2022-08-31T18:48:24.733Z,18.03
2022-08-31T18:50:49.278Z,18.07
2022-08-31T18:53:29.059Z,17.96
2022-08-31T18:56:06.844Z,17.83
2022-08-31T18:58:36.334Z,17.61
2022-08-31T19:01:11.461Z,17.48
2022-08-31T19:03:41.374Z,17.36
2022-08-31T19:06:16.801Z,17.17
2022-08-31T19:08:46.134Z,17.06
2022-08-31T19:11:16.819Z,16.98
2022-08-31T19:13:46.553Z,17.13
2022-08-31T19:16:18.756Z,17.08
2022-08-31T19:18:48.392Z,17.05
2022-08-31T19:21:19.839Z,17.00
2022-08-31T19:23:49.471Z,16.99
2022-08-31T19:26:27.205Z,16.97
2022-08-31T19:28:56.997Z,16.93
2022-08-31T19:31:27.957Z,16.87
2022-08-31T19:33:59.611Z,16.89
2022-08-31T19:36:28.740Z,16.86
2022-08-31T19:38:57.677Z,16.84
2022-08-31T19:41:29.764Z,16.79
2022-08-31T19:44:08.503Z,16.77
2022-08-31T19:46:39.630Z,16.75
2022-08-31T19:49:11.034Z,16.69
2022-08-31T19:51:41.197Z,16.61
2022-08-31T19:54:11.614Z,16.56
2022-08-31T19:56:43.846Z,16.50
2022-08-31T19:59:18.317Z,16.38
2022-08-31T20:01:53.094Z,16.35
2022-08-31T20:04:26.229Z,16.35
2022-08-31T20:06:56.047Z,16.36
2022-08-31T20:09:26.033Z,16.29
2022-08-31T20:12:00.008Z,16.27
2022-08-31T20:14:29.277Z,16.28
2022-08-31T20:16:59.506Z,16.19
2022-08-31T20:19:36.128Z,16.12
2022-08-31T20:22:08.040Z,16.05
2022-08-31T20:24:44.051Z,16.04
2022-08-31T20:27:18.897Z,16.06
2022-08-31T20:29:49.227Z,16.01
2022-08-31T20:32:18.216Z,15.96
2022-08-31T20:34:49.755Z,15.91
2022-08-31T20:37:18.433Z,15.69
2022-08-31T20:39:47.278Z,15.87
2022-08-31T20:42:17.605Z,15.90
2022-08-31T20:44:48.911Z,15.83
2022-08-31T20:47:35.606Z,15.84
2022-08-31T20:50:11.550Z,15.84
2022-08-31T20:52:40.614Z,15.91
2022-08-31T20:55:12.495Z,15.95
2022-08-31T20:57:43.034Z,16.02
2022-08-31T21:00:14.179Z,15.85
2022-08-31T21:02:44.211Z,15.81
2022-08-31T21:05:37.253Z,15.82
2022-08-31T21:08:05.743Z,15.87
2022-08-31T21:10:37.647Z,15.85
2022-08-31T21:13:13.678Z,15.75
2022-08-31T21:15:44.872Z,15.71
2022-08-31T21:18:17.856Z,15.65
2022-08-31T21:20:47.677Z,15.61
2022-08-31T21:23:16.932Z,15.58
2022-08-31T21:25:47.314Z,15.57
2022-08-31T21:28:19.261Z,15.43
2022-08-31T21:30:50.550Z,15.53
2022-08-31T21:33:19.955Z,15.49
2022-08-31T21:35:49.180Z,15.49
2022-08-31T21:38:18.522Z,15.49
2022-08-31T21:40:51.359Z,15.46
2022-08-31T21:43:22.037Z,15.47
2022-08-31T21:46:01.046Z,15.44
2022-08-31T21:48:31.094Z,15.40
2022-08-31T21:51:09.953Z,15.37
2022-08-31T21:53:39.474Z,15.40
2022-08-31T21:56:09.191Z,15.39
2022-08-31T21:58:40.128Z,15.42
2022-08-31T22:01:13.624Z,15.41
2022-08-31T22:03:43.120Z,15.40
2022-08-31T22:06:14.285Z,15.45
2022-08-31T22:08:43.642Z,15.53
2022-08-31T22:11:14.885Z,15.57
2022-08-31T22:13:46.113Z,15.61
2022-08-31T22:16:19.375Z,15.68
2022-08-31T22:19:06.692Z,15.72
2022-08-31T22:21:37.481Z,15.52
2022-08-31T22:24:09.323Z,15.72
2022-08-31T22:26:41.626Z,15.79
2022-08-31T22:29:14.926Z,15.94
2022-08-31T22:31:44.296Z,16.02
2022-08-31T22:34:13.949Z,15.88
2022-08-31T22:36:43.207Z,15.73
2022-08-31T22:39:14.058Z,15.64
2022-08-31T22:41:43.689Z,15.61
2022-08-31T22:44:18.628Z,15.39
2022-08-31T22:46:47.989Z,15.60
2022-08-31T22:49:17.429Z,15.61
2022-08-31T22:51:48.428Z,15.60
2022-08-31T22:54:19.242Z,15.54
2022-08-31T22:56:48.987Z,15.46
2022-08-31T22:59:27.125Z,15.45
2022-08-31T23:02:02.168Z,15.42
2022-08-31T23:04:34.692Z,15.46
2022-08-31T23:07:04.739Z,15.55
2022-08-31T23:09:34.454Z,15.53
2022-08-31T23:12:06.032Z,15.77
2022-08-31T23:14:37.586Z,15.83
2022-08-31T23:17:09.132Z,15.88
2022-08-31T23:19:40.967Z,15.91
2022-08-31T23:22:12.540Z,15.99
2022-08-31T23:24:47.080Z,16.02
2022-08-31T23:27:19.345Z,16.01
2022-08-31T23:29:53.096Z,15.81
2022-08-31T23:32:26.311Z,16.08
2022-08-31T23:34:57.589Z,16.00
2022-08-31T23:37:27.635Z,15.92
2022-08-31T23:39:57.869Z,15.89
2022-08-31T23:42:29.488Z,16.06
2022-08-31T23:44:59.969Z,15.98
2022-08-31T23:47:33.113Z,16.04
2022-08-31T23:50:04.882Z,16.05
2022-08-31T23:52:35.522Z,16.00
2022-08-31T23:55:05.221Z,16.01
2022-08-31T23:57:34.197Z,15.93
